Vunisea, Fiji
Current Conditions -  °F | °C
As of 12:00 PM on Tuesday 21 Oct 2014 (Local Time) from NFNA Reporting Station
Broken Clouds Broken Clouds  
Wind Chill: 79°   Ceiling: 4500
Heat Index: 81°   Visibility: 31mi
Dew Point: 68°   Wind: 6mph
Humidity: 69%   Direction: 140°SE
Pressure: 29.94"   Gusts: NA
Location:  19.05°S, 178.17°E
Report Text: NFNA 210000Z 14005KT 50KM SCT020 BKN045 26/20 Q1014 RMK RR NIL
Loading
Personal Weather Stations






























Interactive Weather Map New forecast layout! Learn more

10-Day Weather Forecast

Advertisements
Track Severe Weather on mobile